ADDS METAR Data INFO
IDs: Format: Raw Decoded Include TAF

Data at: 0022 UTC 11 Dec 2017

KCGI 102353Z AUTO 20004KT 10SM CLR 06/M01 A3009 RMK AO2 SLP193 T00561011 10094 20056 53014
KCGI 102253Z 20006KT 10SM CLR 07/M01 A3007 RMK AO2 SLP186 T00721006
KCGI 102153Z 20010KT 10SM CLR 09/M01 A3006 RMK AO2 SLP183 T00941011
KCGI 102053Z 21013KT 10SM CLR 09/M02 A3005 RMK AO2 SLP178 T00941017 56018
KCGI 101953Z 21012G20KT 10SM CLR 09/M02 A3005 RMK AO2 SLP179 T00941017
KCGI 101853Z 19012KT 10SM CLR 08/M02 A3008 RMK AO2 SLP188 T00781022
KCGI 101753Z 20013G24KT 10SM CLR 07/M03 A3011 RMK AO2 SLP197 T00671033 10067 21072 58034
KCGI 101653Z 20012KT 10SM CLR 05/M04 A3014 RMK AO2 SLP210 T00501044
KCGI 101553Z 20011KT 10SM CLR 02/M05 A3019 RMK AO2 SLP226 T00221050
KCGI 101453Z 20009KT 10SM CLR M01/M05 A3021 RMK AO2 SLP232 T10061050 58008
KCGI 101353Z 21008KT 10SM CLR M02/M06 A3023 RMK AO2 SLP239 T10221061
KCGI 101253Z 20003KT 10SM CLR M05/M08 A3022 RMK AO2 SLP235 T10501083
KCGI 101153Z AUTO 00000KT 10SM CLR M07/M09 A3023 RMK AO2 SLP240 T10671094 11056 21078 56005
KCGI 101053Z AUTO 00000KT 10SM CLR M07/M09 A3023 RMK AO2 SLP240 T10721094
KCGI 100953Z AUTO 00000KT 10SM CLR M07/M08 A3023 RMK AO2 SLP240 T10671083
KCGI 100853Z AUTO 00000KT 10SM CLR M07/M09 A3025 RMK AO2 SLP246 T10671089 55002
KCGI 100753Z AUTO 22003KT 10SM CLR M07/M09 A3024 RMK AO2 SLP245 T10671089
KCGI 100653Z AUTO 25003KT 10SM CLR M07/M09 A3025 RMK AO2 SLP246 T10671089
KCGI 100553Z AUTO 23003KT 10SM CLR M06/M08 A3025 RMK AO2 SLP247 T10561078 10006 21061 400501078 51008
KCGI 100453Z AUTO 00000KT 10SM CLR M04/M08 A3025 RMK AO2 SLP246 T10441078
KCGI 100353Z AUTO 00000KT 10SM CLR M03/M08 A3024 RMK AO2 SLP243 T10331078
KCGI 100253Z AUTO 00000KT 10SM CLR M04/M08 A3023 RMK AO2 SLP239 T10391078 51020
KCGI 100153Z AUTO 35005KT 10SM CLR M02/M08 A3021 RMK AO2 SLP233 T10221078
KCGI 100053Z AUTO 35007KT 10SM CLR M01/M08 A3019 RMK AO2 SLP226 T10111078
KCGI 092353Z AUTO 34004KT 10SM CLR 01/M08 A3017 RMK AO2 SLP219 T00061078 10050 20000 53038
KCGI 092253Z 33008KT 10SM CLR 02/M08 A3013 RMK AO2 SLP204 T00221078
KCGI 092153Z 33014KT 10SM FEW055 04/M08 A3009 RMK AO2 SLP192 T00441078
KCGI 092053Z 35010KT 10SM SCT050 04/M07 A3005 RMK AO2 SLP179 T00441067 53022
KCGI 091953Z 34015KT 10SM SCT046 04/M07 A3003 RMK AO2 PK WND 34027/1903 SLP170 T00441067
KCGI 091853Z 35018G25KT 10SM BKN044 03/M07 A3001 RMK AO2 PK WND 34029/1843 SLP163 T00331072
KCGI 091753Z 32016G31KT 10SM OVC040 03/M07 A2999 RMK AO2 PK WND 30031/1750 SLP157 T00281072 10033 21044 51018
KCGI 091653Z 33018G26KT 10SM OVC035 01/M07 A2999 RMK AO2 PK WND 33027/1620 SLP157 T00111067
KCGI 091553Z 30010KT 10SM BKN031 01/M06 A2996 RMK AO2 SLP148 T00061056
KCGI 091453Z 25012KT 10SM CLR M01/M07 A2993 RMK AO2 SLP140 T10111072 51012
KCGI 091353Z 24009KT 10SM FEW040 OVC080 M02/M08 A2993 RMK AO2 SLP138 T10221078
KCGI 091253Z AUTO 25007KT 10SM BKN085 M03/M08 A2992 RMK AO2 SLP135 T10331083